sensor_id;sensor_type;location;lat;lon;timestamp;P1;P2;P0
30342;PMS5003;17145;49.902;8.680;2023-12-20T00:01:22;58;44;
30342;PMS5003;17145;49.902;8.680;2023-12-20T00:03:49;53;46;
30342;PMS5003;17145;49.902;8.680;2023-12-20T00:06:17;58;44;
30342;PMS5003;17145;49.902;8.680;2023-12-20T00:08:44;50;44;
30342;PMS5003;17145;49.902;8.680;2023-12-20T00:11:12;45;41;
30342;PMS5003;17145;49.902;8.680;2023-12-20T00:13:40;68;47;
30342;PMS5003;17145;49.902;8.680;2023-12-20T00:16:07;65;48;
30342;PMS5003;17145;49.902;8.680;2023-12-20T00:18:34;62;47;
30342;PMS5003;17145;49.902;8.680;2023-12-20T00:21:02;46;43;
30342;PMS5003;17145;49.902;8.680;2023-12-20T00:23:30;45;42;
30342;PMS5003;17145;49.902;8.680;2023-12-20T00:25:57;50;42;
30342;PMS5003;17145;49.902;8.680;2023-12-20T00:28:25;55;50;
30342;PMS5003;17145;49.902;8.680;2023-12-20T00:30:52;43;39;
30342;PMS5003;17145;49.902;8.680;2023-12-20T00:33:20;43;41;
30342;PMS5003;17145;49.902;8.680;2023-12-20T00:35:47;53;49;
30342;PMS5003;17145;49.902;8.680;2023-12-20T00:38:14;66;58;
30342;PMS5003;17145;49.902;8.680;2023-12-20T00:40:42;65;60;
30342;PMS5003;17145;49.902;8.680;2023-12-20T00:43:09;49;43;
30342;PMS5003;17145;49.902;8.680;2023-12-20T00:45:37;60;47;
30342;PMS5003;17145;49.902;8.680;2023-12-20T00:48:04;58;51;
30342;PMS5003;17145;49.902;8.680;2023-12-20T00:50:32;60;46;
30342;PMS5003;17145;49.902;8.680;2023-12-20T00:52:59;72;60;
30342;PMS5003;17145;49.902;8.680;2023-12-20T00:55:27;65;55;
30342;PMS5003;17145;49.902;8.680;2023-12-20T00:57:55;70;57;
30342;PMS5003;17145;49.902;8.680;2023-12-20T01:00:22;61;46;
30342;PMS5003;17145;49.902;8.680;2023-12-20T01:02:49;47;44;
30342;PMS5003;17145;49.902;8.680;2023-12-20T01:05:17;53;43;
30342;PMS5003;17145;49.902;8.680;2023-12-20T01:07:45;55;43;
30342;PMS5003;17145;49.902;8.680;2023-12-20T01:10:13;51;48;
30342;PMS5003;17145;49.902;8.680;2023-12-20T01:12:40;61;47;
30342;PMS5003;17145;49.902;8.680;2023-12-20T01:15:08;56;48;
30342;PMS5003;17145;49.902;8.680;2023-12-20T01:17:36;61;46;
30342;PMS5003;17145;49.902;8.680;2023-12-20T01:20:06;48;45;
30342;PMS5003;17145;49.902;8.680;2023-12-20T01:22:34;54;45;
30342;PMS5003;17145;49.902;8.680;2023-12-20T01:25:01;65;51;
30342;PMS5003;17145;49.902;8.680;2023-12-20T01:27:29;55;47;
30342;PMS5003;17145;49.902;8.680;2023-12-20T01:29:56;49;47;
30342;PMS5003;17145;49.902;8.680;2023-12-20T01:32:23;62;49;
30342;PMS5003;17145;49.902;8.680;2023-12-20T01:34:51;45;44;
30342;PMS5003;17145;49.902;8.680;2023-12-20T01:37:18;61;47;
30342;PMS5003;17145;49.902;8.680;2023-12-20T01:39:45;62;53;
30342;PMS5003;17145;49.902;8.680;2023-12-20T01:42:13;62;47;
30342;PMS5003;17145;49.902;8.680;2023-12-20T01:44:40;63;54;
30342;PMS5003;17145;49.902;8.680;2023-12-20T01:47:08;59;58;
30342;PMS5003;17145;49.902;8.680;2023-12-20T01:49:43;94;84;
30342;PMS5003;17145;49.902;8.680;2023-12-20T01:52:10;76;57;
30342;PMS5003;17145;49.902;8.680;2023-12-20T01:54:38;79;58;
30342;PMS5003;17145;49.902;8.680;2023-12-20T01:57:08;69;55;
30342;PMS5003;17145;49.902;8.680;2023-12-20T01:59:37;73;60;
30342;PMS5003;17145;49.902;8.680;2023-12-20T02:02:07;65;60;
30342;PMS5003;17145;49.902;8.680;2023-12-20T02:04:34;80;64;
30342;PMS5003;17145;49.902;8.680;2023-12-20T02:07:02;83;65;
30342;PMS5003;17145;49.902;8.680;2023-12-20T02:09:30;84;61;
30342;PMS5003;17145;49.902;8.680;2023-12-20T02:11:58;84;62;
30342;PMS5003;17145;49.902;8.680;2023-12-20T02:14:26;85;67;
30342;PMS5003;17145;49.902;8.680;2023-12-20T02:16:53;73;56;
30342;PMS5003;17145;49.902;8.680;2023-12-20T02:19:21;91;66;
30342;PMS5003;17145;49.902;8.680;2023-12-20T02:21:48;65;59;
30342;PMS5003;17145;49.902;8.680;2023-12-20T02:24:15;84;62;
30342;PMS5003;17145;49.902;8.680;2023-12-20T02:26:43;86;77;
30342;PMS5003;17145;49.902;8.680;2023-12-20T02:29:11;86;68;
30342;PMS5003;17145;49.902;8.680;2023-12-20T02:31:38;95;66;
30342;PMS5003;17145;49.902;8.680;2023-12-20T02:34:06;83;67;
30342;PMS5003;17145;49.902;8.680;2023-12-20T02:36:33;92;63;
30342;PMS5003;17145;49.902;8.680;2023-12-20T02:39:00;84;65;
30342;PMS5003;17145;49.902;8.680;2023-12-20T02:41:28;85;63;
30342;PMS5003;17145;49.902;8.680;2023-12-20T02:43:55;86;67;
30342;PMS5003;17145;49.902;8.680;2023-12-20T02:46:23;86;63;
30342;PMS5003;17145;49.902;8.680;2023-12-20T02:48:51;78;68;
30342;PMS5003;17145;49.902;8.680;2023-12-20T02:51:18;68;60;
30342;PMS5003;17145;49.902;8.680;2023-12-20T02:53:46;82;68;
30342;PMS5003;17145;49.902;8.680;2023-12-20T02:56:13;85;67;
30342;PMS5003;17145;49.902;8.680;2023-12-20T02:58:40;75;60;
30342;PMS5003;17145;49.902;8.680;2023-12-20T03:01:07;88;63;
30342;PMS5003;17145;49.902;8.680;2023-12-20T03:03:35;97;66;
30342;PMS5003;17145;49.902;8.680;2023-12-20T03:06:02;86;66;
30342;PMS5003;17145;49.902;8.680;2023-12-20T03:08:30;92;70;
30342;PMS5003;17145;49.902;8.680;2023-12-20T03:10:58;94;68;
30342;PMS5003;17145;49.902;8.680;2023-12-20T03:13:26;75;63;
30342;PMS5003;17145;49.902;8.680;2023-12-20T03:15:53;83;66;
30342;PMS5003;17145;49.902;8.680;2023-12-20T03:18:21;87;65;
30342;PMS5003;17145;49.902;8.680;2023-12-20T03:20:48;75;62;
30342;PMS5003;17145;49.902;8.680;2023-12-20T03:23:15;86;64;
30342;PMS5003;17145;49.902;8.680;2023-12-20T03:25:43;94;68;
30342;PMS5003;17145;49.902;8.680;2023-12-20T03:28:10;87;69;
30342;PMS5003;17145;49.902;8.680;2023-12-20T03:30:37;90;66;
30342;PMS5003;17145;49.902;8.680;2023-12-20T03:33:05;109;83;
30342;PMS5003;17145;49.902;8.680;2023-12-20T03:35:32;76;62;
30342;PMS5003;17145;49.902;8.680;2023-12-20T03:37:59;88;64;
30342;PMS5003;17145;49.902;8.680;2023-12-20T03:40:27;74;59;
30342;PMS5003;17145;49.902;8.680;2023-12-20T03:42:55;82;68;
30342;PMS5003;17145;49.902;8.680;2023-12-20T03:45:22;83;63;
30342;PMS5003;17145;49.902;8.680;2023-12-20T03:47:50;88;67;
30342;PMS5003;17145;49.902;8.680;2023-12-20T03:50:17;97;70;
30342;PMS5003;17145;49.902;8.680;2023-12-20T03:52:45;88;66;
30342;PMS5003;17145;49.902;8.680;2023-12-20T03:55:12;86;65;
30342;PMS5003;17145;49.902;8.680;2023-12-20T03:57:40;95;62;
30342;PMS5003;17145;49.902;8.680;2023-12-20T04:00:07;74;67;
30342;PMS5003;17145;49.902;8.680;2023-12-20T04:02:35;90;68;
30342;PMS5003;17145;49.902;8.680;2023-12-20T04:05:03;84;66;
30342;PMS5003;17145;49.902;8.680;2023-12-20T04:07:31;94;70;
30342;PMS5003;17145;49.902;8.680;2023-12-20T04:09:58;89;62;
30342;PMS5003;17145;49.902;8.680;2023-12-20T04:12:26;97;74;
30342;PMS5003;17145;49.902;8.680;2023-12-20T04:14:55;91;74;
30342;PMS5003;17145;49.902;8.680;2023-12-20T04:17:22;79;67;
30342;PMS5003;17145;49.902;8.680;2023-12-20T04:19:50;95;62;
30342;PMS5003;17145;49.902;8.680;2023-12-20T04:22:18;90;62;
30342;PMS5003;17145;49.902;8.680;2023-12-20T04:24:45;92;72;
30342;PMS5003;17145;49.902;8.680;2023-12-20T04:27:13;88;64;
30342;PMS5003;17145;49.902;8.680;2023-12-20T04:29:40;94;68;
30342;PMS5003;17145;49.902;8.680;2023-12-20T04:32:07;107;73;
30342;PMS5003;17145;49.902;8.680;2023-12-20T04:34:35;95;62;
30342;PMS5003;17145;49.902;8.680;2023-12-20T04:37:03;97;65;
30342;PMS5003;17145;49.902;8.680;2023-12-20T04:39:30;84;72;
30342;PMS5003;17145;49.902;8.680;2023-12-20T04:41:58;85;65;
30342;PMS5003;17145;49.902;8.680;2023-12-20T04:44:25;94;64;
30342;PMS5003;17145;49.902;8.680;2023-12-20T04:46:52;90;61;
30342;PMS5003;17145;49.902;8.680;2023-12-20T04:49:20;91;61;
30342;PMS5003;17145;49.902;8.680;2023-12-20T04:51:48;81;60;
30342;PMS5003;17145;49.902;8.680;2023-12-20T04:54:15;80;64;
30342;PMS5003;17145;49.902;8.680;2023-12-20T04:56:43;92;61;
30342;PMS5003;17145;49.902;8.680;2023-12-20T04:59:11;84;65;
30342;PMS5003;17145;49.902;8.680;2023-12-20T05:01:38;86;61;
30342;PMS5003;17145;49.902;8.680;2023-12-20T05:04:05;76;63;
30342;PMS5003;17145;49.902;8.680;2023-12-20T05:06:33;79;64;
30342;PMS5003;17145;49.902;8.680;2023-12-20T05:09:00;126;100;
30342;PMS5003;17145;49.902;8.680;2023-12-20T05:11:28;85;72;
30342;PMS5003;17145;49.902;8.680;2023-12-20T05:13:55;72;58;
30342;PMS5003;17145;49.902;8.680;2023-12-20T05:16:23;77;61;
30342;PMS5003;17145;49.902;8.680;2023-12-20T05:18:50;88;65;
30342;PMS5003;17145;49.902;8.680;2023-12-20T05:21:18;106;84;
30342;PMS5003;17145;49.902;8.680;2023-12-20T05:23:45;90;70;
30342;PMS5003;17145;49.902;8.680;2023-12-20T05:26:13;82;65;
30342;PMS5003;17145;49.902;8.680;2023-12-20T05:28:40;74;60;
30342;PMS5003;17145;49.902;8.680;2023-12-20T05:31:07;82;61;
30342;PMS5003;17145;49.902;8.680;2023-12-20T05:33:35;68;59;
30342;PMS5003;17145;49.902;8.680;2023-12-20T05:36:03;68;55;
30342;PMS5003;17145;49.902;8.680;2023-12-20T05:38:30;67;55;
30342;PMS5003;17145;49.902;8.680;2023-12-20T05:40:58;83;56;
30342;PMS5003;17145;49.902;8.680;2023-12-20T05:43:25;75;59;
30342;PMS5003;17145;49.902;8.680;2023-12-20T05:45:53;83;64;
30342;PMS5003;17145;49.902;8.680;2023-12-20T05:48:20;76;55;
30342;PMS5003;17145;49.902;8.680;2023-12-20T05:50:48;86;59;
30342;PMS5003;17145;49.902;8.680;2023-12-20T05:53:15;85;63;
30342;PMS5003;17145;49.902;8.680;2023-12-20T05:55:43;87;63;
30342;PMS5003;17145;49.902;8.680;2023-12-20T05:58:10;83;64;
30342;PMS5003;17145;49.902;8.680;2023-12-20T06:00:37;76;61;
30342;PMS5003;17145;49.902;8.680;2023-12-20T06:03:05;73;54;
30342;PMS5003;17145;49.902;8.680;2023-12-20T06:05:32;97;58;
30342;PMS5003;17145;49.902;8.680;2023-12-20T06:08:00;80;68;
30342;PMS5003;17145;49.902;8.680;2023-12-20T06:10:27;85;57;
30342;PMS5003;17145;49.902;8.680;2023-12-20T06:12:55;57;47;
30342;PMS5003;17145;49.902;8.680;2023-12-20T06:15:22;56;48;
30342;PMS5003;17145;49.902;8.680;2023-12-20T06:17:49;72;64;
30342;PMS5003;17145;49.902;8.680;2023-12-20T06:20:17;69;56;
30342;PMS5003;17145;49.902;8.680;2023-12-20T06:22:45;87;57;
30342;PMS5003;17145;49.902;8.680;2023-12-20T06:25:12;76;56;
30342;PMS5003;17145;49.902;8.680;2023-12-20T06:27:40;69;53;
30342;PMS5003;17145;49.902;8.680;2023-12-20T06:30:08;83;53;
30342;PMS5003;17145;49.902;8.680;2023-12-20T06:32:35;67;47;
30342;PMS5003;17145;49.902;8.680;2023-12-20T06:35:03;72;51;
30342;PMS5003;17145;49.902;8.680;2023-12-20T06:37:31;79;53;
30342;PMS5003;17145;49.902;8.680;2023-12-20T06:39:59;67;49;
30342;PMS5003;17145;49.902;8.680;2023-12-20T06:42:26;78;48;
30342;PMS5003;17145;49.902;8.680;2023-12-20T06:44:54;74;55;
30342;PMS5003;17145;49.902;8.680;2023-12-20T06:47:21;82;60;
30342;PMS5003;17145;49.902;8.680;2023-12-20T06:49:49;64;60;
30342;PMS5003;17145;49.902;8.680;2023-12-20T06:52:19;94;62;
30342;PMS5003;17145;49.902;8.680;2023-12-20T06:54:46;75;51;
30342;PMS5003;17145;49.902;8.680;2023-12-20T06:57:14;79;56;
30342;PMS5003;17145;49.902;8.680;2023-12-20T06:59:41;68;56;
30342;PMS5003;17145;49.902;8.680;2023-12-20T07:02:09;75;56;
30342;PMS5003;17145;49.902;8.680;2023-12-20T07:04:38;79;58;
30342;PMS5003;17145;49.902;8.680;2023-12-20T07:07:06;79;58;
30342;PMS5003;17145;49.902;8.680;2023-12-20T07:09:34;83;60;
30342;PMS5003;17145;49.902;8.680;2023-12-20T07:12:01;68;52;
30342;PMS5003;17145;49.902;8.680;2023-12-20T07:14:28;83;67;
30342;PMS5003;17145;49.902;8.680;2023-12-20T07:16:56;78;60;
30342;PMS5003;17145;49.902;8.680;2023-12-20T07:19:23;74;58;
30342;PMS5003;17145;49.902;8.680;2023-12-20T07:21:50;72;59;
30342;PMS5003;17145;49.902;8.680;2023-12-20T07:24:18;75;63;
30342;PMS5003;17145;49.902;8.680;2023-12-20T07:26:45;80;57;
30342;PMS5003;17145;49.902;8.680;2023-12-20T07:29:13;70;55;
30342;PMS5003;17145;49.902;8.680;2023-12-20T07:31:40;78;62;
30342;PMS5003;17145;49.902;8.680;2023-12-20T07:34:07;82;63;
30342;PMS5003;17145;49.902;8.680;2023-12-20T07:36:35;75;59;
30342;PMS5003;17145;49.902;8.680;2023-12-20T07:39:02;80;55;
30342;PMS5003;17145;49.902;8.680;2023-12-20T07:41:29;87;60;
30342;PMS5003;17145;49.902;8.680;2023-12-20T07:43:57;59;52;
30342;PMS5003;17145;49.902;8.680;2023-12-20T07:46:24;80;62;
30342;PMS5003;17145;49.902;8.680;2023-12-20T07:48:52;81;52;
30342;PMS5003;17145;49.902;8.680;2023-12-20T07:51:19;82;60;
30342;PMS5003;17145;49.902;8.680;2023-12-20T07:53:47;73;52;
30342;PMS5003;17145;49.902;8.680;2023-12-20T07:56:15;62;52;
30342;PMS5003;17145;49.902;8.680;2023-12-20T07:58:43;85;59;
30342;PMS5003;17145;49.902;8.680;2023-12-20T08:01:10;62;54;
30342;PMS5003;17145;49.902;8.680;2023-12-20T08:03:38;74;52;
30342;PMS5003;17145;49.902;8.680;2023-12-20T08:06:05;85;58;
30342;PMS5003;17145;49.902;8.680;2023-12-20T08:08:33;73;51;
30342;PMS5003;17145;49.902;8.680;2023-12-20T08:11:00;71;56;
30342;PMS5003;17145;49.902;8.680;2023-12-20T08:13:27;81;58;
30342;PMS5003;17145;49.902;8.680;2023-12-20T08:15:55;70;60;
30342;PMS5003;17145;49.902;8.680;2023-12-20T08:18:22;81;66;
30342;PMS5003;17145;49.902;8.680;2023-12-20T08:20:50;84;62;
30342;PMS5003;17145;49.902;8.680;2023-12-20T08:23:17;78;63;
30342;PMS5003;17145;49.902;8.680;2023-12-20T08:25:44;87;60;
30342;PMS5003;17145;49.902;8.680;2023-12-20T08:28:12;77;60;
30342;PMS5003;17145;49.902;8.680;2023-12-20T08:30:39;78;56;
30342;PMS5003;17145;49.902;8.680;2023-12-20T08:33:07;73;59;
30342;PMS5003;17145;49.902;8.680;2023-12-20T08:35:34;78;57;
30342;PMS5003;17145;49.902;8.680;2023-12-20T08:38:02;74;59;
30342;PMS5003;17145;49.902;8.680;2023-12-20T08:40:29;70;55;
30342;PMS5003;17145;49.902;8.680;2023-12-20T08:42:57;74;57;
30342;PMS5003;17145;49.902;8.680;2023-12-20T08:45:24;77;64;
30342;PMS5003;17145;49.902;8.680;2023-12-20T08:47:51;83;59;
30342;PMS5003;17145;49.902;8.680;2023-12-20T08:50:19;76;55;
30342;PMS5003;17145;49.902;8.680;2023-12-20T08:52:46;82;56;
30342;PMS5003;17145;49.902;8.680;2023-12-20T08:55:14;69;57;
30342;PMS5003;17145;49.902;8.680;2023-12-20T08:57:41;75;60;
30342;PMS5003;17145;49.902;8.680;2023-12-20T09:00:09;58;54;
30342;PMS5003;17145;49.902;8.680;2023-12-20T09:02:38;72;54;
30342;PMS5003;17145;49.902;8.680;2023-12-20T09:05:05;53;51;
30342;PMS5003;17145;49.902;8.680;2023-12-20T09:07:33;65;57;
30342;PMS5003;17145;49.902;8.680;2023-12-20T09:10:00;65;54;
30342;PMS5003;17145;49.902;8.680;2023-12-20T09:12:28;72;51;
30342;PMS5003;17145;49.902;8.680;2023-12-20T09:14:55;60;51;
30342;PMS5003;17145;49.902;8.680;2023-12-20T09:17:23;68;53;
30342;PMS5003;17145;49.902;8.680;2023-12-20T09:19:50;56;51;
30342;PMS5003;17145;49.902;8.680;2023-12-20T09:22:18;64;53;
30342;PMS5003;17145;49.902;8.680;2023-12-20T09:24:45;76;60;
30342;PMS5003;17145;49.902;8.680;2023-12-20T09:27:13;68;53;
30342;PMS5003;17145;49.902;8.680;2023-12-20T09:29:40;83;60;
30342;PMS5003;17145;49.902;8.680;2023-12-20T09:32:07;79;60;
30342;PMS5003;17145;49.902;8.680;2023-12-20T09:34:35;78;54;
30342;PMS5003;17145;49.902;8.680;2023-12-20T09:37:02;72;54;
30342;PMS5003;17145;49.902;8.680;2023-12-20T09:39:30;78;59;
30342;PMS5003;17145;49.902;8.680;2023-12-20T09:42:00;87;54;
30342;PMS5003;17145;49.902;8.680;2023-12-20T09:44:29;72;53;
30342;PMS5003;17145;49.902;8.680;2023-12-20T09:46:58;64;51;
30342;PMS5003;17145;49.902;8.680;2023-12-20T09:49:29;64;53;
30342;PMS5003;17145;49.902;8.680;2023-12-20T09:51:57;87;58;
30342;PMS5003;17145;49.902;8.680;2023-12-20T09:54:27;69;53;
30342;PMS5003;17145;49.902;8.680;2023-12-20T09:56:57;72;49;
30342;PMS5003;17145;49.902;8.680;2023-12-20T09:59:25;58;46;
30342;PMS5003;17145;49.902;8.680;2023-12-20T10:01:54;76;50;
30342;PMS5003;17145;49.902;8.680;2023-12-20T10:04:23;71;51;
30342;PMS5003;17145;49.902;8.680;2023-12-20T10:06:51;75;48;
30342;PMS5003;17145;49.902;8.680;2023-12-20T10:09:18;72;45;
30342;PMS5003;17145;49.902;8.680;2023-12-20T10:11:45;62;54;
30342;PMS5003;17145;49.902;8.680;2023-12-20T10:14:13;62;51;
30342;PMS5003;17145;49.902;8.680;2023-12-20T10:16:40;67;47;
30342;PMS5003;17145;49.902;8.680;2023-12-20T10:19:08;64;50;
30342;PMS5003;17145;49.902;8.680;2023-12-20T10:21:35;64;49;
30342;PMS5003;17145;49.902;8.680;2023-12-20T10:24:03;60;51;
30342;PMS5003;17145;49.902;8.680;2023-12-20T10:26:32;70;49;
30342;PMS5003;17145;49.902;8.680;2023-12-20T10:28:59;78;57;
30342;PMS5003;17145;49.902;8.680;2023-12-20T10:31:29;70;62;
30342;PMS5003;17145;49.902;8.680;2023-12-20T10:33:57;78;58;
30342;PMS5003;17145;49.902;8.680;2023-12-20T10:36:26;69;54;
30342;PMS5003;17145;49.902;8.680;2023-12-20T10:38:56;66;54;
30342;PMS5003;17145;49.902;8.680;2023-12-20T10:41:25;73;56;
30342;PMS5003;17145;49.902;8.680;2023-12-20T10:43:56;73;56;
30342;PMS5003;17145;49.902;8.680;2023-12-20T10:46:26;64;53;
30342;PMS5003;17145;49.902;8.680;2023-12-20T10:48:54;69;57;
30342;PMS5003;17145;49.902;8.680;2023-12-20T10:51:23;87;56;
30342;PMS5003;17145;49.902;8.680;2023-12-20T10:53:51;66;53;
30342;PMS5003;17145;49.902;8.680;2023-12-20T10:56:20;69;56;
30342;PMS5003;17145;49.902;8.680;2023-12-20T10:58:48;74;57;
30342;PMS5003;17145;49.902;8.680;2023-12-20T11:01:16;75;61;
30342;PMS5003;17145;49.902;8.680;2023-12-20T11:03:48;62;52;
30342;PMS5003;17145;49.902;8.680;2023-12-20T11:06:21;72;51;
30342;PMS5003;17145;49.902;8.680;2023-12-20T11:08:58;76;56;
30342;PMS5003;17145;49.902;8.680;2023-12-20T11:11:36;74;57;
30342;PMS5003;17145;49.902;8.680;2023-12-20T11:14:14;69;58;
30342;PMS5003;17145;49.902;8.680;2023-12-20T11:16:45;64;57;
30342;PMS5003;17145;49.902;8.680;2023-12-20T11:19:13;58;52;
30342;PMS5003;17145;49.902;8.680;2023-12-20T11:21:40;65;52;
30342;PMS5003;17145;49.902;8.680;2023-12-20T11:24:08;61;52;
30342;PMS5003;17145;49.902;8.680;2023-12-20T11:26:37;79;60;
30342;PMS5003;17145;49.902;8.680;2023-12-20T11:31:51;71;52;
30342;PMS5003;17145;49.902;8.680;2023-12-20T11:34:18;67;56;
30342;PMS5003;17145;49.902;8.680;2023-12-20T11:36:46;70;52;
30342;PMS5003;17145;49.902;8.680;2023-12-20T11:39:17;77;59;
30342;PMS5003;17145;49.902;8.680;2023-12-20T11:41:48;77;51;
30342;PMS5003;17145;49.902;8.680;2023-12-20T11:44:17;67;53;
30342;PMS5003;17145;49.902;8.680;2023-12-20T11:46:44;59;52;
30342;PMS5003;17145;49.902;8.680;2023-12-20T11:49:12;73;55;
30342;PMS5003;17145;49.902;8.680;2023-12-20T11:51:40;64;53;
30342;PMS5003;17145;49.902;8.680;2023-12-20T11:54:08;57;52;
30342;PMS5003;17145;49.902;8.680;2023-12-20T11:56:36;73;48;
30342;PMS5003;17145;49.902;8.680;2023-12-20T11:59:04;70;48;
30342;PMS5003;17145;49.902;8.680;2023-12-20T12:01:31;62;49;
30342;PMS5003;17145;49.902;8.680;2023-12-20T12:04:02;59;46;
30342;PMS5003;17145;49.902;8.680;2023-12-20T12:06:29;53;51;
30342;PMS5003;17145;49.902;8.680;2023-12-20T12:08:57;45;40;
30342;PMS5003;17145;49.902;8.680;2023-12-20T12:11:24;60;44;
30342;PMS5003;17145;49.902;8.680;2023-12-20T12:13:52;51;45;
30342;PMS5003;17145;49.902;8.680;2023-12-20T12:16:20;66;52;
30342;PMS5003;17145;49.902;8.680;2023-12-20T12:21:23;60;41;
30342;PMS5003;17145;49.902;8.680;2023-12-20T12:23:51;60;46;
30342;PMS5003;17145;49.902;8.680;2023-12-20T12:26:18;55;45;
30342;PMS5003;17145;49.902;8.680;2023-12-20T12:28:46;56;44;
30342;PMS5003;17145;49.902;8.680;2023-12-20T12:31:13;51;40;
30342;PMS5003;17145;49.902;8.680;2023-12-20T12:33:41;53;46;
30342;PMS5003;17145;49.902;8.680;2023-12-20T12:36:09;42;37;
30342;PMS5003;17145;49.902;8.680;2023-12-20T12:38:37;52;38;
30342;PMS5003;17145;49.902;8.680;2023-12-20T12:41:05;37;31;
30342;PMS5003;17145;49.902;8.680;2023-12-20T12:43:32;47;37;
30342;PMS5003;17145;49.902;8.680;2023-12-20T12:46:00;42;36;
30342;PMS5003;17145;49.902;8.680;2023-12-20T12:48:27;38;33;
30342;PMS5003;17145;49.902;8.680;2023-12-20T12:50:56;40;34;
30342;PMS5003;17145;49.902;8.680;2023-12-20T12:53:23;36;29;
30342;PMS5003;17145;49.902;8.680;2023-12-20T12:55:50;40;33;
30342;PMS5003;17145;49.902;8.680;2023-12-20T12:58:18;29;25;
30342;PMS5003;17145;49.902;8.680;2023-12-20T13:00:45;33;29;
30342;PMS5003;17145;49.902;8.680;2023-12-20T13:03:13;40;29;
30342;PMS5003;17145;49.902;8.680;2023-12-20T13:05:40;41;30;
30342;PMS5003;17145;49.902;8.680;2023-12-20T13:08:08;40;33;
30342;PMS5003;17145;49.902;8.680;2023-12-20T13:10:36;29;27;
30342;PMS5003;17145;49.902;8.680;2023-12-20T13:13:04;33;30;
30342;PMS5003;17145;49.902;8.680;2023-12-20T13:15:32;47;30;
30342;PMS5003;17145;49.902;8.680;2023-12-20T13:17:59;46;29;
30342;PMS5003;17145;49.902;8.680;2023-12-20T13:20:27;33;30;
30342;PMS5003;17145;49.902;8.680;2023-12-20T13:22:54;41;26;
30342;PMS5003;17145;49.902;8.680;2023-12-20T13:25:22;34;26;
30342;PMS5003;17145;49.902;8.680;2023-12-20T13:27:49;39;30;
30342;PMS5003;17145;49.902;8.680;2023-12-20T13:30:17;33;26;
30342;PMS5003;17145;49.902;8.680;2023-12-20T13:32:44;33;28;
30342;PMS5003;17145;49.902;8.680;2023-12-20T13:35:12;26;23;
30342;PMS5003;17145;49.902;8.680;2023-12-20T13:37:40;33;30;
30342;PMS5003;17145;49.902;8.680;2023-12-20T13:40:08;27;26;
30342;PMS5003;17145;49.902;8.680;2023-12-20T13:42:35;38;31;
30342;PMS5003;17145;49.902;8.680;2023-12-20T13:45:03;37;28;
30342;PMS5003;17145;49.902;8.680;2023-12-20T13:47:31;37;29;
30342;PMS5003;17145;49.902;8.680;2023-12-20T13:49:59;44;29;
30342;PMS5003;17145;49.902;8.680;2023-12-20T13:52:27;32;29;
30342;PMS5003;17145;49.902;8.680;2023-12-20T13:54:55;44;29;
30342;PMS5003;17145;49.902;8.680;2023-12-20T13:57:22;32;29;
30342;PMS5003;17145;49.902;8.680;2023-12-20T13:59:49;34;30;
30342;PMS5003;17145;49.902;8.680;2023-12-20T14:02:19;33;27;
30342;PMS5003;17145;49.902;8.680;2023-12-20T14:04:46;44;27;
30342;PMS5003;17145;49.902;8.680;2023-12-20T14:07:14;43;30;
30342;PMS5003;17145;49.902;8.680;2023-12-20T14:09:41;34;32;
30342;PMS5003;17145;49.902;8.680;2023-12-20T14:12:09;39;26;
30342;PMS5003;17145;49.902;8.680;2023-12-20T14:14:36;33;29;
30342;PMS5003;17145;49.902;8.680;2023-12-20T14:17:04;50;33;
30342;PMS5003;17145;49.902;8.680;2023-12-20T14:19:31;44;33;
30342;PMS5003;17145;49.902;8.680;2023-12-20T14:21:59;37;29;
30342;PMS5003;17145;49.902;8.680;2023-12-20T14:24:26;27;26;
30342;PMS5003;17145;49.902;8.680;2023-12-20T14:26:54;36;33;
30342;PMS5003;17145;49.902;8.680;2023-12-20T14:29:21;44;36;
30342;PMS5003;17145;49.902;8.680;2023-12-20T14:31:49;52;33;
30342;PMS5003;17145;49.902;8.680;2023-12-20T14:34:16;36;32;
30342;PMS5003;17145;49.902;8.680;2023-12-20T14:36:44;43;30;
30342;PMS5003;17145;49.902;8.680;2023-12-20T14:39:11;50;30;
30342;PMS5003;17145;49.902;8.680;2023-12-20T14:41:38;50;32;
30342;PMS5003;17145;49.902;8.680;2023-12-20T14:44:06;48;33;
30342;PMS5003;17145;49.902;8.680;2023-12-20T14:46:33;43;33;
30342;PMS5003;17145;49.902;8.680;2023-12-20T14:49:01;51;34;
30342;PMS5003;17145;49.902;8.680;2023-12-20T14:51:28;32;27;
30342;PMS5003;17145;49.902;8.680;2023-12-20T14:53:56;34;33;
30342;PMS5003;17145;49.902;8.680;2023-12-20T14:56:24;48;33;
30342;PMS5003;17145;49.902;8.680;2023-12-20T14:58:51;37;33;
30342;PMS5003;17145;49.902;8.680;2023-12-20T15:01:19;43;34;
30342;PMS5003;17145;49.902;8.680;2023-12-20T15:03:46;55;33;
30342;PMS5003;17145;49.902;8.680;2023-12-20T15:06:14;50;32;
30342;PMS5003;17145;49.902;8.680;2023-12-20T15:08:41;36;32;
30342;PMS5003;17145;49.902;8.680;2023-12-20T15:11:09;41;31;
30342;PMS5003;17145;49.902;8.680;2023-12-20T15:13:36;34;31;
30342;PMS5003;17145;49.902;8.680;2023-12-20T15:16:04;54;38;
30342;PMS5003;17145;49.902;8.680;2023-12-20T15:18:32;45;36;
30342;PMS5003;17145;49.902;8.680;2023-12-20T15:21:00;42;38;
30342;PMS5003;17145;49.902;8.680;2023-12-20T15:23:27;54;38;
30342;PMS5003;17145;49.902;8.680;2023-12-20T15:25:54;44;36;
30342;PMS5003;17145;49.902;8.680;2023-12-20T15:28:22;38;34;
30342;PMS5003;17145;49.902;8.680;2023-12-20T15:30:49;39;30;
30342;PMS5003;17145;49.902;8.680;2023-12-20T15:33:17;49;33;
30342;PMS5003;17145;49.902;8.680;2023-12-20T15:35:44;30;29;
30342;PMS5003;17145;49.902;8.680;2023-12-20T15:38:12;40;33;
30342;PMS5003;17145;49.902;8.680;2023-12-20T15:40:39;39;33;
30342;PMS5003;17145;49.902;8.680;2023-12-20T15:43:07;48;36;
30342;PMS5003;17145;49.902;8.680;2023-12-20T15:45:34;57;36;
30342;PMS5003;17145;49.902;8.680;2023-12-20T15:48:02;40;32;
30342;PMS5003;17145;49.902;8.680;2023-12-20T15:50:29;52;34;
30342;PMS5003;17145;49.902;8.680;2023-12-20T15:52:58;41;33;
30342;PMS5003;17145;49.902;8.680;2023-12-20T15:55:25;50;36;
30342;PMS5003;17145;49.902;8.680;2023-12-20T15:57:52;42;36;
30342;PMS5003;17145;49.902;8.680;2023-12-20T16:00:20;56;37;
30342;PMS5003;17145;49.902;8.680;2023-12-20T16:02:47;56;37;
30342;PMS5003;17145;49.902;8.680;2023-12-20T16:05:15;63;40;
30342;PMS5003;17145;49.902;8.680;2023-12-20T16:07:43;38;34;
30342;PMS5003;17145;49.902;8.680;2023-12-20T16:10:10;49;33;
30342;PMS5003;17145;49.902;8.680;2023-12-20T16:12:38;61;41;
30342;PMS5003;17145;49.902;8.680;2023-12-20T16:15:06;49;37;
30342;PMS5003;17145;49.902;8.680;2023-12-20T16:17:35;54;40;
30342;PMS5003;17145;49.902;8.680;2023-12-20T16:20:03;58;38;
30342;PMS5003;17145;49.902;8.680;2023-12-20T16:22:32;42;35;
30342;PMS5003;17145;49.902;8.680;2023-12-20T16:24:59;55;35;